sensor_id;sensor_type;location;lat;lon;timestamp;P1;durP1;ratioP1;P2;durP2;ratioP2
16282;SDS011;8249;48.708;9.030;2022-08-05T00:02:21;3.35;;;3.15;;
16282;SDS011;8249;48.708;9.030;2022-08-05T00:04:48;3.13;;;2.92;;
16282;SDS011;8249;48.708;9.030;2022-08-05T00:07:15;3.42;;;3.15;;
16282;SDS011;8249;48.708;9.030;2022-08-05T00:09:42;3.05;;;2.85;;
16282;SDS011;8249;48.708;9.030;2022-08-05T00:12:09;3.40;;;3.10;;
16282;SDS011;8249;48.708;9.030;2022-08-05T00:14:36;3.40;;;3.10;;
16282;SDS011;8249;48.708;9.030;2022-08-05T00:17:03;2.95;;;2.75;;
16282;SDS011;8249;48.708;9.030;2022-08-05T00:19:31;4.13;;;3.55;;
16282;SDS011;8249;48.708;9.030;2022-08-05T00:21:58;4.57;;;3.10;;
16282;SDS011;8249;48.708;9.030;2022-08-05T00:24:25;7.72;;;3.22;;
16282;SDS011;8249;48.708;9.030;2022-08-05T00:26:52;3.47;;;3.17;;
16282;SDS011;8249;48.708;9.030;2022-08-05T00:29:20;3.45;;;3.03;;
16282;SDS011;8249;48.708;9.030;2022-08-05T00:31:47;3.45;;;3.20;;
16282;SDS011;8249;48.708;9.030;2022-08-05T00:34:14;3.08;;;2.85;;
16282;SDS011;8249;48.708;9.030;2022-08-05T00:36:42;3.10;;;2.97;;
16282;SDS011;8249;48.708;9.030;2022-08-05T00:39:09;3.50;;;3.20;;
16282;SDS011;8249;48.708;9.030;2022-08-05T00:41:36;5.97;;;3.10;;
16282;SDS011;8249;48.708;9.030;2022-08-05T00:44:03;3.50;;;3.25;;
16282;SDS011;8249;48.708;9.030;2022-08-05T00:46:31;5.28;;;3.60;;
16282;SDS011;8249;48.708;9.030;2022-08-05T00:48:58;4.18;;;3.70;;
16282;SDS011;8249;48.708;9.030;2022-08-05T00:51:25;4.32;;;3.55;;
16282;SDS011;8249;48.708;9.030;2022-08-05T00:53:53;3.50;;;3.30;;
16282;SDS011;8249;48.708;9.030;2022-08-05T00:56:20;3.88;;;3.42;;
16282;SDS011;8249;48.708;9.030;2022-08-05T00:58:47;4.05;;;3.70;;
16282;SDS011;8249;48.708;9.030;2022-08-05T01:01:14;4.17;;;3.77;;
16282;SDS011;8249;48.708;9.030;2022-08-05T01:03:41;3.45;;;3.25;;
16282;SDS011;8249;48.708;9.030;2022-08-05T01:06:08;3.55;;;3.35;;
16282;SDS011;8249;48.708;9.030;2022-08-05T01:08:36;4.15;;;3.10;;
16282;SDS011;8249;48.708;9.030;2022-08-05T01:11:05;5.25;;;3.15;;
16282;SDS011;8249;48.708;9.030;2022-08-05T01:13:38;4.28;;;2.78;;
16282;SDS011;8249;48.708;9.030;2022-08-05T01:16:13;3.55;;;3.25;;
16282;SDS011;8249;48.708;9.030;2022-08-05T01:18:46;4.43;;;3.10;;
16282;SDS011;8249;48.708;9.030;2022-08-05T01:21:22;4.82;;;2.50;;
16282;SDS011;8249;48.708;9.030;2022-08-05T01:24:09;5.95;;;2.67;;
16282;SDS011;8249;48.708;9.030;2022-08-05T01:26:59;4.97;;;2.83;;
16282;SDS011;8249;48.708;9.030;2022-08-05T01:29:35;5.95;;;2.90;;
16282;SDS011;8249;48.708;9.030;2022-08-05T01:32:07;3.97;;;2.53;;
16282;SDS011;8249;48.708;9.030;2022-08-05T01:34:37;4.03;;;2.80;;
16282;SDS011;8249;48.708;9.030;2022-08-05T01:37:08;5.22;;;3.17;;
16282;SDS011;8249;48.708;9.030;2022-08-05T01:39:41;6.38;;;2.40;;
16282;SDS011;8249;48.708;9.030;2022-08-05T01:42:12;4.57;;;3.28;;
16282;SDS011;8249;48.708;9.030;2022-08-05T01:44:43;4.70;;;2.53;;
16282;SDS011;8249;48.708;9.030;2022-08-05T01:47:11;5.57;;;2.97;;
16282;SDS011;8249;48.708;9.030;2022-08-05T01:49:42;7.07;;;2.72;;
16282;SDS011;8249;48.708;9.030;2022-08-05T01:52:11;5.15;;;2.72;;
16282;SDS011;8249;48.708;9.030;2022-08-05T01:54:40;7.85;;;3.00;;
16282;SDS011;8249;48.708;9.030;2022-08-05T01:57:10;3.60;;;2.83;;
16282;SDS011;8249;48.708;9.030;2022-08-05T01:59:39;7.93;;;2.67;;
16282;SDS011;8249;48.708;9.030;2022-08-05T02:02:08;3.25;;;2.63;;
16282;SDS011;8249;48.708;9.030;2022-08-05T02:04:37;3.30;;;2.47;;
16282;SDS011;8249;48.708;9.030;2022-08-05T02:07:07;3.08;;;2.72;;
16282;SDS011;8249;48.708;9.030;2022-08-05T02:09:35;4.65;;;3.08;;
16282;SDS011;8249;48.708;9.030;2022-08-05T02:12:03;4.30;;;3.10;;
16282;SDS011;8249;48.708;9.030;2022-08-05T02:14:39;10.18;;;2.83;;
16282;SDS011;8249;48.708;9.030;2022-08-05T02:17:11;6.15;;;3.22;;
16282;SDS011;8249;48.708;9.030;2022-08-05T02:19:43;7.72;;;3.15;;
16282;SDS011;8249;48.708;9.030;2022-08-05T02:22:17;4.40;;;3.10;;
16282;SDS011;8249;48.708;9.030;2022-08-05T02:24:49;9.82;;;3.08;;
16282;SDS011;8249;48.708;9.030;2022-08-05T02:27:17;8.00;;;2.95;;
16282;SDS011;8249;48.708;9.030;2022-08-05T02:29:47;4.97;;;3.00;;
16282;SDS011;8249;48.708;9.030;2022-08-05T02:32:17;6.65;;;2.85;;
16282;SDS011;8249;48.708;9.030;2022-08-05T02:34:47;5.57;;;2.95;;
16282;SDS011;8249;48.708;9.030;2022-08-05T02:37:15;10.10;;;3.40;;
16282;SDS011;8249;48.708;9.030;2022-08-05T02:39:43;4.90;;;3.28;;
16282;SDS011;8249;48.708;9.030;2022-08-05T02:42:13;10.13;;;3.22;;
16282;SDS011;8249;48.708;9.030;2022-08-05T02:44:42;5.10;;;2.88;;
16282;SDS011;8249;48.708;9.030;2022-08-05T02:47:09;5.10;;;2.83;;
16282;SDS011;8249;48.708;9.030;2022-08-05T02:49:41;6.50;;;3.20;;
16282;SDS011;8249;48.708;9.030;2022-08-05T02:52:11;3.78;;;3.00;;
16282;SDS011;8249;48.708;9.030;2022-08-05T02:54:42;3.47;;;3.17;;
16282;SDS011;8249;48.708;9.030;2022-08-05T02:57:11;4.75;;;3.00;;
16282;SDS011;8249;48.708;9.030;2022-08-05T02:59:41;4.43;;;3.17;;
16282;SDS011;8249;48.708;9.030;2022-08-05T03:02:10;5.50;;;2.70;;
16282;SDS011;8249;48.708;9.030;2022-08-05T03:04:38;3.80;;;2.80;;
16282;SDS011;8249;48.708;9.030;2022-08-05T03:07:08;6.50;;;2.92;;
16282;SDS011;8249;48.708;9.030;2022-08-05T03:09:35;8.45;;;3.22;;
16282;SDS011;8249;48.708;9.030;2022-08-05T03:12:03;6.30;;;3.58;;
16282;SDS011;8249;48.708;9.030;2022-08-05T03:14:31;4.32;;;3.03;;
16282;SDS011;8249;48.708;9.030;2022-08-05T03:16:58;3.72;;;2.75;;
16282;SDS011;8249;48.708;9.030;2022-08-05T03:19:25;4.43;;;3.03;;
16282;SDS011;8249;48.708;9.030;2022-08-05T03:21:53;10.15;;;3.28;;
16282;SDS011;8249;48.708;9.030;2022-08-05T03:24:20;4.10;;;3.10;;
16282;SDS011;8249;48.708;9.030;2022-08-05T03:26:48;3.97;;;2.83;;
16282;SDS011;8249;48.708;9.030;2022-08-05T03:29:15;4.30;;;3.08;;
16282;SDS011;8249;48.708;9.030;2022-08-05T03:31:42;5.65;;;3.30;;
16282;SDS011;8249;48.708;9.030;2022-08-05T03:34:09;6.97;;;3.42;;
16282;SDS011;8249;48.708;9.030;2022-08-05T03:36:36;5.50;;;3.28;;
16282;SDS011;8249;48.708;9.030;2022-08-05T03:39:07;2.90;;;2.70;;
16282;SDS011;8249;48.708;9.030;2022-08-05T03:41:34;4.07;;;3.03;;
16282;SDS011;8249;48.708;9.030;2022-08-05T03:44:01;5.82;;;3.33;;
16282;SDS011;8249;48.708;9.030;2022-08-05T03:46:29;5.15;;;2.97;;
16282;SDS011;8249;48.708;9.030;2022-08-05T03:48:56;3.65;;;3.20;;
16282;SDS011;8249;48.708;9.030;2022-08-05T03:51:25;4.40;;;3.10;;
16282;SDS011;8249;48.708;9.030;2022-08-05T03:53:56;4.63;;;3.42;;
16282;SDS011;8249;48.708;9.030;2022-08-05T03:56:31;3.70;;;3.40;;
16282;SDS011;8249;48.708;9.030;2022-08-05T03:59:09;7.97;;;3.42;;
16282;SDS011;8249;48.708;9.030;2022-08-05T04:01:43;5.68;;;3.42;;
16282;SDS011;8249;48.708;9.030;2022-08-05T04:04:13;5.22;;;3.47;;
16282;SDS011;8249;48.708;9.030;2022-08-05T04:06:41;5.55;;;3.60;;
16282;SDS011;8249;48.708;9.030;2022-08-05T04:09:09;4.50;;;3.67;;
16282;SDS011;8249;48.708;9.030;2022-08-05T04:11:38;6.32;;;3.40;;
16282;SDS011;8249;48.708;9.030;2022-08-05T04:14:05;5.82;;;4.05;;
16282;SDS011;8249;48.708;9.030;2022-08-05T04:16:33;4.72;;;3.70;;
16282;SDS011;8249;48.708;9.030;2022-08-05T04:19:00;4.00;;;3.67;;
16282;SDS011;8249;48.708;9.030;2022-08-05T04:21:27;6.97;;;3.70;;
16282;SDS011;8249;48.708;9.030;2022-08-05T04:23:55;7.13;;;3.60;;
16282;SDS011;8249;48.708;9.030;2022-08-05T04:26:22;10.20;;;4.25;;
16282;SDS011;8249;48.708;9.030;2022-08-05T04:28:51;5.80;;;3.90;;
16282;SDS011;8249;48.708;9.030;2022-08-05T04:31:18;8.63;;;3.70;;
16282;SDS011;8249;48.708;9.030;2022-08-05T04:33:45;4.20;;;3.80;;
16282;SDS011;8249;48.708;9.030;2022-08-05T04:36:12;3.72;;;3.42;;
16282;SDS011;8249;48.708;9.030;2022-08-05T04:38:40;4.47;;;4.07;;
16282;SDS011;8249;48.708;9.030;2022-08-05T04:41:07;4.20;;;3.43;;
16282;SDS011;8249;48.708;9.030;2022-08-05T04:43:34;5.00;;;3.63;;
16282;SDS011;8249;48.708;9.030;2022-08-05T04:46:03;7.78;;;3.58;;
16282;SDS011;8249;48.708;9.030;2022-08-05T04:48:30;6.65;;;4.00;;
16282;SDS011;8249;48.708;9.030;2022-08-05T04:50:57;4.63;;;3.75;;
16282;SDS011;8249;48.708;9.030;2022-08-05T04:53:25;5.70;;;3.67;;
16282;SDS011;8249;48.708;9.030;2022-08-05T04:55:53;4.90;;;4.20;;
16282;SDS011;8249;48.708;9.030;2022-08-05T04:58:20;7.82;;;3.78;;
16282;SDS011;8249;48.708;9.030;2022-08-05T05:00:47;5.50;;;4.20;;
16282;SDS011;8249;48.708;9.030;2022-08-05T05:03:15;3.97;;;3.47;;
16282;SDS011;8249;48.708;9.030;2022-08-05T05:05:42;5.72;;;4.07;;
16282;SDS011;8249;48.708;9.030;2022-08-05T05:08:09;10.07;;;4.05;;
16282;SDS011;8249;48.708;9.030;2022-08-05T05:10:38;8.70;;;4.40;;
16282;SDS011;8249;48.708;9.030;2022-08-05T05:13:07;6.57;;;4.20;;
16282;SDS011;8249;48.708;9.030;2022-08-05T05:15:34;5.20;;;4.10;;
16282;SDS011;8249;48.708;9.030;2022-08-05T05:18:02;5.57;;;4.03;;
16282;SDS011;8249;48.708;9.030;2022-08-05T05:20:30;7.97;;;4.10;;
16282;SDS011;8249;48.708;9.030;2022-08-05T05:22:58;6.22;;;3.78;;
16282;SDS011;8249;48.708;9.030;2022-08-05T05:25:28;5.15;;;4.10;;
16282;SDS011;8249;48.708;9.030;2022-08-05T05:27:56;6.05;;;3.95;;
16282;SDS011;8249;48.708;9.030;2022-08-05T05:30:23;6.22;;;3.90;;
16282;SDS011;8249;48.708;9.030;2022-08-05T05:32:50;6.25;;;4.57;;
16282;SDS011;8249;48.708;9.030;2022-08-05T05:35:18;7.45;;;4.07;;
16282;SDS011;8249;48.708;9.030;2022-08-05T05:37:48;5.97;;;3.95;;
16282;SDS011;8249;48.708;9.030;2022-08-05T05:40:16;9.38;;;4.65;;
16282;SDS011;8249;48.708;9.030;2022-08-05T05:42:44;7.47;;;4.13;;
16282;SDS011;8249;48.708;9.030;2022-08-05T05:45:11;11.27;;;4.60;;
16282;SDS011;8249;48.708;9.030;2022-08-05T05:47:38;9.65;;;4.53;;
16282;SDS011;8249;48.708;9.030;2022-08-05T05:50:06;6.40;;;4.40;;
16282;SDS011;8249;48.708;9.030;2022-08-05T05:52:33;6.07;;;4.82;;
16282;SDS011;8249;48.708;9.030;2022-08-05T05:55:02;9.60;;;4.50;;
16282;SDS011;8249;48.708;9.030;2022-08-05T05:57:30;7.32;;;4.20;;
16282;SDS011;8249;48.708;9.030;2022-08-05T05:59:57;6.63;;;4.00;;
16282;SDS011;8249;48.708;9.030;2022-08-05T06:02:24;8.27;;;4.30;;
16282;SDS011;8249;48.708;9.030;2022-08-05T06:04:51;8.93;;;4.35;;
16282;SDS011;8249;48.708;9.030;2022-08-05T06:07:18;8.00;;;4.20;;
16282;SDS011;8249;48.708;9.030;2022-08-05T06:09:45;6.78;;;4.10;;
16282;SDS011;8249;48.708;9.030;2022-08-05T06:12:14;6.38;;;4.20;;
16282;SDS011;8249;48.708;9.030;2022-08-05T06:14:41;6.32;;;4.13;;
16282;SDS011;8249;48.708;9.030;2022-08-05T06:17:09;7.22;;;4.38;;
16282;SDS011;8249;48.708;9.030;2022-08-05T06:19:36;9.43;;;4.65;;
16282;SDS011;8249;48.708;9.030;2022-08-05T06:22:03;5.15;;;4.05;;
16282;SDS011;8249;48.708;9.030;2022-08-05T06:24:31;5.55;;;3.90;;
16282;SDS011;8249;48.708;9.030;2022-08-05T06:26:59;6.80;;;4.25;;
16282;SDS011;8249;48.708;9.030;2022-08-05T06:29:27;6.55;;;4.45;;
16282;SDS011;8249;48.708;9.030;2022-08-05T06:31:54;7.85;;;4.40;;
16282;SDS011;8249;48.708;9.030;2022-08-05T06:34:21;7.15;;;4.00;;
16282;SDS011;8249;48.708;9.030;2022-08-05T06:36:48;6.38;;;3.92;;
16282;SDS011;8249;48.708;9.030;2022-08-05T06:39:15;5.63;;;3.90;;
16282;SDS011;8249;48.708;9.030;2022-08-05T06:41:42;4.68;;;3.90;;
16282;SDS011;8249;48.708;9.030;2022-08-05T06:44:11;7.82;;;3.70;;
16282;SDS011;8249;48.708;9.030;2022-08-05T06:46:39;7.95;;;4.07;;
16282;SDS011;8249;48.708;9.030;2022-08-05T06:49:06;6.40;;;3.75;;
16282;SDS011;8249;48.708;9.030;2022-08-05T06:51:33;3.55;;;3.25;;
16282;SDS011;8249;48.708;9.030;2022-08-05T06:54:01;4.22;;;3.08;;
16282;SDS011;8249;48.708;9.030;2022-08-05T06:56:29;6.35;;;3.20;;
16282;SDS011;8249;48.708;9.030;2022-08-05T06:58:57;4.53;;;2.90;;
16282;SDS011;8249;48.708;9.030;2022-08-05T07:01:24;3.13;;;2.90;;
16282;SDS011;8249;48.708;9.030;2022-08-05T07:03:52;4.32;;;3.05;;
16282;SDS011;8249;48.708;9.030;2022-08-05T07:06:19;3.13;;;2.90;;
16282;SDS011;8249;48.708;9.030;2022-08-05T07:08:47;2.97;;;2.63;;
16282;SDS011;8249;48.708;9.030;2022-08-05T07:11:14;2.92;;;2.70;;
16282;SDS011;8249;48.708;9.030;2022-08-05T07:13:42;3.63;;;2.80;;
16282;SDS011;8249;48.708;9.030;2022-08-05T07:16:26;3.67;;;2.70;;
16282;SDS011;8249;48.708;9.030;2022-08-05T07:19:15;3.30;;;3.00;;
16282;SDS011;8249;48.708;9.030;2022-08-05T07:21:43;4.32;;;3.00;;
16282;SDS011;8249;48.708;9.030;2022-08-05T07:24:10;3.83;;;2.60;;
16282;SDS011;8249;48.708;9.030;2022-08-05T07:26:37;2.90;;;2.53;;
16282;SDS011;8249;48.708;9.030;2022-08-05T07:29:04;2.67;;;2.47;;
16282;SDS011;8249;48.708;9.030;2022-08-05T07:31:31;2.30;;;2.13;;
16282;SDS011;8249;48.708;9.030;2022-08-05T07:33:58;3.50;;;2.20;;
16282;SDS011;8249;48.708;9.030;2022-08-05T07:36:27;6.13;;;2.28;;
16282;SDS011;8249;48.708;9.030;2022-08-05T07:38:54;3.30;;;2.00;;
16282;SDS011;8249;48.708;9.030;2022-08-05T07:41:22;2.20;;;2.10;;
16282;SDS011;8249;48.708;9.030;2022-08-05T07:43:50;2.25;;;1.70;;
16282;SDS011;8249;48.708;9.030;2022-08-05T07:46:18;2.03;;;1.77;;
16282;SDS011;8249;48.708;9.030;2022-08-05T07:48:45;2.33;;;1.95;;
16282;SDS011;8249;48.708;9.030;2022-08-05T07:51:12;1.90;;;1.80;;
16282;SDS011;8249;48.708;9.030;2022-08-05T07:53:41;2.00;;;1.90;;
16282;SDS011;8249;48.708;9.030;2022-08-05T07:56:08;1.83;;;1.83;;
16282;SDS011;8249;48.708;9.030;2022-08-05T07:58:35;2.97;;;1.85;;
16282;SDS011;8249;48.708;9.030;2022-08-05T08:01:02;2.30;;;2.10;;
16282;SDS011;8249;48.708;9.030;2022-08-05T08:03:29;3.15;;;1.80;;
16282;SDS011;8249;48.708;9.030;2022-08-05T08:05:56;1.90;;;1.80;;
16282;SDS011;8249;48.708;9.030;2022-08-05T08:08:23;1.80;;;1.70;;
16282;SDS011;8249;48.708;9.030;2022-08-05T08:10:51;1.80;;;1.70;;
16282;SDS011;8249;48.708;9.030;2022-08-05T08:13:19;1.80;;;1.70;;
16282;SDS011;8249;48.708;9.030;2022-08-05T08:15:46;3.92;;;2.00;;
16282;SDS011;8249;48.708;9.030;2022-08-05T08:18:13;2.25;;;1.90;;
16282;SDS011;8249;48.708;9.030;2022-08-05T08:20:40;3.42;;;1.95;;
16282;SDS011;8249;48.708;9.030;2022-08-05T08:23:07;2.83;;;2.17;;
16282;SDS011;8249;48.708;9.030;2022-08-05T08:25:34;3.20;;;2.00;;
16282;SDS011;8249;48.708;9.030;2022-08-05T08:28:03;3.53;;;1.80;;
16282;SDS011;8249;48.708;9.030;2022-08-05T08:30:30;2.92;;;2.17;;
16282;SDS011;8249;48.708;9.030;2022-08-05T08:32:57;2.40;;;2.22;;
16282;SDS011;8249;48.708;9.030;2022-08-05T08:35:24;2.92;;;2.00;;
16282;SDS011;8249;48.708;9.030;2022-08-05T08:37:51;2.40;;;2.30;;
16282;SDS011;8249;48.708;9.030;2022-08-05T08:40:18;1.95;;;1.85;;
16282;SDS011;8249;48.708;9.030;2022-08-05T08:42:46;2.22;;;2.13;;
16282;SDS011;8249;48.708;9.030;2022-08-05T08:45:17;2.28;;;1.90;;
16282;SDS011;8249;48.708;9.030;2022-08-05T08:47:45;2.00;;;1.90;;
16282;SDS011;8249;48.708;9.030;2022-08-05T08:50:15;2.30;;;1.80;;
16282;SDS011;8249;48.708;9.030;2022-08-05T08:52:45;2.25;;;1.80;;
16282;SDS011;8249;48.708;9.030;2022-08-05T08:55:15;2.53;;;1.77;;
16282;SDS011;8249;48.708;9.030;2022-08-05T08:57:44;2.20;;;2.10;;
16282;SDS011;8249;48.708;9.030;2022-08-05T09:00:12;2.40;;;2.15;;
16282;SDS011;8249;48.708;9.030;2022-08-05T09:02:41;2.22;;;1.83;;
16282;SDS011;8249;48.708;9.030;2022-08-05T09:05:10;1.95;;;1.85;;
16282;SDS011;8249;48.708;9.030;2022-08-05T09:07:39;2.00;;;1.90;;
16282;SDS011;8249;48.708;9.030;2022-08-05T09:10:06;2.00;;;1.90;;
16282;SDS011;8249;48.708;9.030;2022-08-05T09:12:33;2.03;;;1.92;;
16282;SDS011;8249;48.708;9.030;2022-08-05T09:15:01;1.77;;;1.67;;
16282;SDS011;8249;48.708;9.030;2022-08-05T09:17:29;2.40;;;1.42;;
16282;SDS011;8249;48.708;9.030;2022-08-05T09:19:58;2.10;;;2.00;;
16282;SDS011;8249;48.708;9.030;2022-08-05T09:22:25;1.92;;;1.80;;
16282;SDS011;8249;48.708;9.030;2022-08-05T09:24:56;2.33;;;1.67;;
16282;SDS011;8249;48.708;9.030;2022-08-05T09:27:30;1.77;;;1.67;;
16282;SDS011;8249;48.708;9.030;2022-08-05T09:29:59;2.38;;;1.90;;
16282;SDS011;8249;48.708;9.030;2022-08-05T09:32:33;2.10;;;1.90;;
16282;SDS011;8249;48.708;9.030;2022-08-05T09:35:08;1.60;;;1.50;;
16282;SDS011;8249;48.708;9.030;2022-08-05T09:37:37;1.65;;;1.55;;
16282;SDS011;8249;48.708;9.030;2022-08-05T09:40:27;1.70;;;1.60;;
16282;SDS011;8249;48.708;9.030;2022-08-05T09:42:55;2.00;;;1.60;;
16282;SDS011;8249;48.708;9.030;2022-08-05T09:45:33;1.63;;;1.52;;
16282;SDS011;8249;48.708;9.030;2022-08-05T09:48:17;4.88;;;1.88;;
16282;SDS011;8249;48.708;9.030;2022-08-05T09:50:48;1.65;;;1.58;;
16282;SDS011;8249;48.708;9.030;2022-08-05T09:53:16;1.63;;;1.52;;
16282;SDS011;8249;48.708;9.030;2022-08-05T09:55:44;1.70;;;1.60;;
16282;SDS011;8249;48.708;9.030;2022-08-05T09:58:12;1.70;;;1.60;;
16282;SDS011;8249;48.708;9.030;2022-08-05T10:00:50;1.80;;;1.70;;
16282;SDS011;8249;48.708;9.030;2022-08-05T10:03:19;1.90;;;1.73;;
16282;SDS011;8249;48.708;9.030;2022-08-05T10:05:46;2.17;;;1.50;;
16282;SDS011;8249;48.708;9.030;2022-08-05T10:08:31;1.60;;;1.50;;
16282;SDS011;8249;48.708;9.030;2022-08-05T10:10:58;1.67;;;1.58;;
16282;SDS011;8249;48.708;9.030;2022-08-05T10:13:29;1.92;;;1.83;;
16282;SDS011;8249;48.708;9.030;2022-08-05T10:16:00;2.28;;;1.80;;
16282;SDS011;8249;48.708;9.030;2022-08-05T10:18:27;2.35;;;1.58;;
16282;SDS011;8249;48.708;9.030;2022-08-05T10:20:57;1.60;;;1.50;;
16282;SDS011;8249;48.708;9.030;2022-08-05T10:23:27;2.03;;;1.40;;
16282;SDS011;8249;48.708;9.030;2022-08-05T10:25:57;1.30;;;1.27;;
16282;SDS011;8249;48.708;9.030;2022-08-05T10:28:25;2.45;;;1.60;;
16282;SDS011;8249;48.708;9.030;2022-08-05T10:30:52;2.03;;;1.90;;
16282;SDS011;8249;48.708;9.030;2022-08-05T10:33:20;1.45;;;1.35;;
16282;SDS011;8249;48.708;9.030;2022-08-05T10:35:50;1.98;;;1.70;;
16282;SDS011;8249;48.708;9.030;2022-08-05T10:38:18;2.80;;;1.40;;
16282;SDS011;8249;48.708;9.030;2022-08-05T10:40:51;1.60;;;1.50;;
16282;SDS011;8249;48.708;9.030;2022-08-05T10:43:28;1.60;;;1.50;;
16282;SDS011;8249;48.708;9.030;2022-08-05T10:46:00;1.75;;;1.65;;
16282;SDS011;8249;48.708;9.030;2022-08-05T10:48:33;2.05;;;1.30;;
16282;SDS011;8249;48.708;9.030;2022-08-05T10:51:03;1.50;;;1.40;;
16282;SDS011;8249;48.708;9.030;2022-08-05T10:53:36;1.70;;;1.60;;
16282;SDS011;8249;48.708;9.030;2022-08-05T10:56:07;1.70;;;1.60;;
16282;SDS011;8249;48.708;9.030;2022-08-05T10:58:35;1.80;;;1.70;;
16282;SDS011;8249;48.708;9.030;2022-08-05T11:01:13;1.65;;;1.35;;
16282;SDS011;8249;48.708;9.030;2022-08-05T11:04:00;1.70;;;1.60;;
16282;SDS011;8249;48.708;9.030;2022-08-05T11:06:32;4.55;;;1.52;;
16282;SDS011;8249;48.708;9.030;2022-08-05T11:09:09;1.73;;;1.50;;
16282;SDS011;8249;48.708;9.030;2022-08-05T11:11:45;1.88;;;1.75;;
16282;SDS011;8249;48.708;9.030;2022-08-05T11:14:21;2.38;;;1.50;;
16282;SDS011;8249;48.708;9.030;2022-08-05T11:19:53;1.30;;;1.30;;
16282;SDS011;8249;48.708;9.030;2022-08-05T11:22:38;1.60;;;1.50;;
16282;SDS011;8249;48.708;9.030;2022-08-05T11:25:30;1.50;;;1.40;;
16282;SDS011;8249;48.708;9.030;2022-08-05T11:34:05;2.38;;;1.55;;
16282;SDS011;8249;48.708;9.030;2022-08-05T11:42:14;1.77;;;1.67;;
16282;SDS011;8249;48.708;9.030;2022-08-05T11:44:42;1.77;;;1.60;;
16282;SDS011;8249;48.708;9.030;2022-08-05T11:47:11;1.77;;;1.67;;
16282;SDS011;8249;48.708;9.030;2022-08-05T11:49:38;1.60;;;1.60;;
16282;SDS011;8249;48.708;9.030;2022-08-05T11:52:06;1.73;;;1.63;;
16282;SDS011;8249;48.708;9.030;2022-08-05T11:54:33;1.83;;;1.73;;
16282;SDS011;8249;48.708;9.030;2022-08-05T11:57:02;2.03;;;1.48;;
16282;SDS011;8249;48.708;9.030;2022-08-05T11:59:30;2.45;;;1.52;;
16282;SDS011;8249;48.708;9.030;2022-08-05T12:01:59;2.25;;;1.50;;
16282;SDS011;8249;48.708;9.030;2022-08-05T12:04:38;1.83;;;1.55;;
16282;SDS011;8249;48.708;9.030;2022-08-05T12:07:06;1.98;;;1.60;;
16282;SDS011;8249;48.708;9.030;2022-08-05T12:09:37;2.05;;;1.85;;
16282;SDS011;8249;48.708;9.030;2022-08-05T12:12:05;1.77;;;1.67;;
16282;SDS011;8249;48.708;9.030;2022-08-05T12:14:36;2.13;;;2.00;;
16282;SDS011;8249;48.708;9.030;2022-08-05T12:17:07;1.75;;;1.67;;
16282;SDS011;8249;48.708;9.030;2022-08-05T12:19:44;1.77;;;1.65;;
16282;SDS011;8249;48.708;9.030;2022-08-05T12:22:12;1.83;;;1.73;;
16282;SDS011;8249;48.708;9.030;2022-08-05T12:24:40;1.65;;;1.50;;
16282;SDS011;8249;48.708;9.030;2022-08-05T12:27:09;1.85;;;1.70;;
16282;SDS011;8249;48.708;9.030;2022-08-05T12:29:43;2.00;;;1.80;;
16282;SDS011;8249;48.708;9.030;2022-08-05T12:32:10;3.33;;;1.85;;
16282;SDS011;8249;48.708;9.030;2022-08-05T12:34:37;1.90;;;1.80;;
16282;SDS011;8249;48.708;9.030;2022-08-05T12:37:07;2.50;;;1.90;;
16282;SDS011;8249;48.708;9.030;2022-08-05T12:39:37;2.10;;;1.90;;
16282;SDS011;8249;48.708;9.030;2022-08-05T12:42:07;1.90;;;1.80;;
16282;SDS011;8249;48.708;9.030;2022-08-05T12:44:36;2.10;;;2.00;;
16282;SDS011;8249;48.708;9.030;2022-08-05T12:47:03;2.10;;;2.00;;
16282;SDS011;8249;48.708;9.030;2022-08-05T12:49:38;2.28;;;2.05;;
16282;SDS011;8249;48.708;9.030;2022-08-05T12:52:11;2.17;;;1.92;;
16282;SDS011;8249;48.708;9.030;2022-08-05T12:54:39;2.50;;;2.15;;
16282;SDS011;8249;48.708;9.030;2022-08-05T12:57:07;2.17;;;1.98;;
16282;SDS011;8249;48.708;9.030;2022-08-05T12:59:42;2.10;;;1.90;;
16282;SDS011;8249;48.708;9.030;2022-08-05T13:02:11;1.90;;;1.80;;
16282;SDS011;8249;48.708;9.030;2022-08-05T13:04:41;2.78;;;2.13;;
16282;SDS011;8249;48.708;9.030;2022-08-05T13:07:12;2.38;;;2.25;;
16282;SDS011;8249;48.708;9.030;2022-08-05T13:09:41;2.10;;;2.00;;
16282;SDS011;8249;48.708;9.030;2022-08-05T13:12:13;2.00;;;1.90;;
16282;SDS011;8249;48.708;9.030;2022-08-05T13:14:42;2.28;;;2.13;;
16282;SDS011;8249;48.708;9.030;2022-08-05T13:17:15;2.40;;;2.20;;
16282;SDS011;8249;48.708;9.030;2022-08-05T13:19:56;2.08;;;1.98;;
16282;SDS011;8249;48.708;9.030;2022-08-05T13:22:26;2.22;;;1.95;;
16282;SDS011;8249;48.708;9.030;2022-08-05T13:24:53;2.10;;;2.00;;
16282;SDS011;8249;48.708;9.030;2022-08-05T13:27:24;2.17;;;2.00;;
16282;SDS011;8249;48.708;9.030;2022-08-05T13:29:51;2.63;;;2.42;;
16282;SDS011;8249;48.708;9.030;2022-08-05T13:32:18;1.67;;;1.67;;
16282;SDS011;8249;48.708;9.030;2022-08-05T13:34:46;3.70;;;2.20;;
16282;SDS011;8249;48.708;9.030;2022-08-05T13:37:13;2.00;;;1.90;;
16282;SDS011;8249;48.708;9.030;2022-08-05T13:39:41;1.98;;;1.88;;
16282;SDS011;8249;48.708;9.030;2022-08-05T13:42:09;2.40;;;2.17;;
16282;SDS011;8249;48.708;9.030;2022-08-05T13:44:36;2.20;;;2.10;;
16282;SDS011;8249;48.708;9.030;2022-08-05T13:47:03;2.03;;;1.92;;
16282;SDS011;8249;48.708;9.030;2022-08-05T13:49:30;4.20;;;2.50;;
16282;SDS011;8249;48.708;9.030;2022-08-05T13:51:57;2.22;;;2.03;;
16282;SDS011;8249;48.708;9.030;2022-08-05T13:54:35;2.08;;;1.98;;
16282;SDS011;8249;48.708;9.030;2022-08-05T13:57:03;3.05;;;2.10;;
16282;SDS011;8249;48.708;9.030;2022-08-05T13:59:31;1.95;;;1.80;;
16282;SDS011;8249;48.708;9.030;2022-08-05T14:01:58;2.90;;;2.10;;
16282;SDS011;8249;48.708;9.030;2022-08-05T14:04:27;4.13;;;2.75;;
16282;SDS011;8249;48.708;9.030;2022-08-05T14:07:13;2.90;;;2.70;;
16282;SDS011;8249;48.708;9.030;2022-08-05T14:09:40;2.33;;;1.98;;
16282;SDS011;8249;48.708;9.030;2022-08-05T14:12:08;2.45;;;2.20;;
16282;SDS011;8249;48.708;9.030;2022-08-05T14:14:35;4.70;;;2.50;;
16282;SDS011;8249;48.708;9.030;2022-08-05T14:17:03;2.20;;;2.00;;
16282;SDS011;8249;48.708;9.030;2022-08-05T14:19:30;3.90;;;2.38;;
16282;SDS011;8249;48.708;9.030;2022-08-05T14:21:57;2.38;;;2.17;;
16282;SDS011;8249;48.708;9.030;2022-08-05T14:24:24;3.28;;;2.13;;
16282;SDS011;8249;48.708;9.030;2022-08-05T14:26:51;3.17;;;2.28;;
16282;SDS011;8249;48.708;9.030;2022-08-05T14:29:20;2.38;;;2.25;;
16282;SDS011;8249;48.708;9.030;2022-08-05T14:31:46;2.85;;;2.20;;
16282;SDS011;8249;48.708;9.030;2022-08-05T14:34:13;2.10;;;2.00;;
16282;SDS011;8249;48.708;9.030;2022-08-05T14:36:40;2.85;;;2.33;;
16282;SDS011;8249;48.708;9.030;2022-08-05T14:39:07;2.75;;;2.50;;
16282;SDS011;8249;48.708;9.030;2022-08-05T14:41:34;3.92;;;2.28;;
16282;SDS011;8249;48.708;9.030;2022-08-05T14:44:01;5.03;;;2.35;;
16282;SDS011;8249;48.708;9.030;2022-08-05T14:46:30;3.55;;;2.38;;
16282;SDS011;8249;48.708;9.030;2022-08-05T14:48:58;6.18;;;2.47;;
16282;SDS011;8249;48.708;9.030;2022-08-05T14:51:26;2.67;;;2.45;;
16282;SDS011;8249;48.708;9.030;2022-08-05T14:53:53;2.60;;;2.40;;
16282;SDS011;8249;48.708;9.030;2022-08-05T14:56:20;2.30;;;2.20;;
16282;SDS011;8249;48.708;9.030;2022-08-05T14:58:47;2.85;;;2.60;;
16282;SDS011;8249;48.708;9.030;2022-08-05T15:01:16;2.65;;;2.45;;
16282;SDS011;8249;48.708;9.030;2022-08-05T15:03:45;20.75;;;6.22;;
16282;SDS011;8249;48.708;9.030;2022-08-05T15:06:12;11.57;;;5.10;;
16282;SDS011;8249;48.708;9.030;2022-08-05T15:08:39;6.07;;;3.72;;
16282;SDS011;8249;48.708;9.030;2022-08-05T15:11:06;4.07;;;3.50;;
16282;SDS011;8249;48.708;9.030;2022-08-05T15:13:33;4.10;;;3.80;;
16282;SDS011;8249;48.708;9.030;2022-08-05T15:16:00;3.92;;;3.47;;
16282;SDS011;8249;48.708;9.030;2022-08-05T15:18:28;9.18;;;4.90;;
16282;SDS011;8249;48.708;9.030;2022-08-05T15:20:56;5.40;;;4.90;;
16282;SDS011;8249;48.708;9.030;2022-08-05T15:23:23;4.28;;;3.20;;
16282;SDS011;8249;48.708;9.030;2022-08-05T15:25:50;5.05;;;4.13;;
16282;SDS011;8249;48.708;9.030;2022-08-05T15:28:17;4.75;;;4.35;;